createdAt,value
2022-11-07T00:01:21.583Z,100.00
2022-11-07T00:03:49.605Z,100.00
2022-11-07T00:06:17.373Z,100.00
2022-11-07T00:08:45.659Z,99.83
2022-11-07T00:11:13.603Z,100.00
2022-11-07T00:13:41.421Z,100.00
2022-11-07T00:16:11.093Z,98.82
2022-11-07T00:18:40.350Z,98.57
2022-11-07T00:21:10.126Z,97.74
2022-11-07T00:23:41.349Z,95.08
2022-11-07T00:26:11.032Z,94.65
2022-11-07T00:28:40.799Z,95.06
2022-11-07T00:31:10.074Z,94.35
2022-11-07T00:33:37.957Z,95.38
2022-11-07T00:36:08.367Z,95.74
2022-11-07T00:38:36.184Z,95.23
2022-11-07T00:41:07.520Z,95.35
2022-11-07T00:43:35.802Z,95.63
2022-11-07T00:46:05.009Z,96.71
2022-11-07T00:48:33.647Z,96.55
2022-11-07T00:51:07.872Z,97.14
2022-11-07T00:53:35.816Z,97.50
2022-11-07T00:56:04.158Z,98.35
2022-11-07T00:58:32.243Z,98.20
2022-11-07T01:01:00.840Z,98.44
2022-11-07T01:03:46.331Z,98.38
2022-11-07T01:06:15.482Z,97.90
2022-11-07T01:08:43.811Z,97.53
2022-11-07T01:11:11.652Z,97.44
2022-11-07T01:13:39.526Z,98.59
2022-11-07T01:16:10.522Z,99.33
2022-11-07T01:18:38.961Z,99.40
2022-11-07T01:21:10.963Z,99.69
2022-11-07T01:23:44.360Z,100.00
2022-11-07T01:26:14.334Z,100.00
2022-11-07T01:28:42.712Z,100.00
2022-11-07T01:31:12.769Z,100.00
2022-11-07T01:33:41.263Z,100.00
2022-11-07T01:36:11.488Z,100.00
2022-11-07T01:38:40.648Z,100.00
2022-11-07T01:41:24.123Z,100.00
2022-11-07T01:43:55.909Z,100.00
2022-11-07T01:46:27.543Z,100.00
2022-11-07T01:49:01.134Z,100.00
2022-11-07T01:51:30.928Z,100.00
2022-11-07T01:53:58.855Z,100.00
2022-11-07T01:56:31.955Z,100.00
2022-11-07T01:59:01.094Z,100.00
2022-11-07T02:01:28.995Z,100.00
2022-11-07T02:03:59.435Z,100.00
2022-11-07T02:06:32.808Z,100.00
2022-11-07T02:09:00.923Z,100.00
2022-11-07T02:11:30.593Z,100.00
2022-11-07T02:13:58.401Z,100.00
2022-11-07T02:16:27.812Z,100.00
2022-11-07T02:18:56.053Z,100.00
2022-11-07T02:21:35.591Z,100.00
2022-11-07T02:24:15.753Z,100.00
2022-11-07T02:26:44.769Z,100.00
2022-11-07T02:29:13.608Z,100.00
2022-11-07T02:31:41.459Z,100.00
2022-11-07T02:34:09.270Z,100.00
2022-11-07T02:36:37.310Z,100.00
2022-11-07T02:39:05.525Z,100.00
2022-11-07T02:41:36.123Z,100.00
2022-11-07T02:44:09.493Z,100.00
2022-11-07T02:46:37.667Z,100.00
2022-11-07T02:49:05.518Z,100.00
2022-11-07T02:51:33.527Z,100.00
2022-11-07T02:54:01.339Z,100.00
2022-11-07T02:56:29.147Z,100.00
2022-11-07T02:58:58.344Z,100.00
2022-11-07T03:01:26.280Z,100.00
2022-11-07T03:03:54.181Z,100.00
2022-11-07T03:06:25.579Z,100.00
2022-11-07T03:08:53.909Z,100.00
2022-11-07T03:11:21.749Z,100.00
2022-11-07T03:13:51.185Z,100.00
2022-11-07T03:16:22.026Z,100.00
2022-11-07T03:18:49.983Z,100.00
2022-11-07T03:21:17.797Z,100.00
2022-11-07T03:23:45.553Z,100.00
2022-11-07T03:26:13.394Z,100.00
2022-11-07T03:28:41.352Z,100.00
2022-11-07T03:31:09.255Z,100.00
2022-11-07T03:33:38.520Z,100.00
2022-11-07T03:36:07.040Z,100.00
2022-11-07T03:38:35.136Z,100.00
2022-11-07T03:41:02.900Z,100.00
2022-11-07T03:43:30.749Z,100.00
2022-11-07T03:45:58.621Z,100.00
2022-11-07T03:48:26.550Z,100.00
2022-11-07T03:50:55.800Z,100.00
2022-11-07T03:53:25.787Z,100.00
2022-11-07T03:55:55.622Z,100.00
2022-11-07T03:58:23.549Z,100.00
2022-11-07T04:00:51.421Z,100.00
2022-11-07T04:03:19.256Z,100.00
2022-11-07T04:05:47.253Z,100.00
2022-11-07T04:08:16.541Z,100.00
2022-11-07T04:10:44.408Z,100.00
2022-11-07T04:13:30.035Z,100.00
2022-11-07T04:16:17.720Z,100.00
2022-11-07T04:18:45.891Z,100.00
2022-11-07T04:21:13.783Z,100.00
2022-11-07T04:23:42.960Z,100.00
2022-11-07T04:26:28.246Z,100.00
2022-11-07T04:28:56.104Z,100.00
2022-11-07T04:31:24.401Z,100.00
2022-11-07T04:33:52.758Z,100.00
2022-11-07T04:36:20.639Z,100.00
2022-11-07T04:38:49.757Z,100.00
2022-11-07T04:41:21.942Z,100.00
2022-11-07T04:43:50.296Z,100.00
2022-11-07T04:46:18.270Z,100.00
2022-11-07T04:48:46.252Z,100.00
2022-11-07T04:51:16.142Z,100.00
2022-11-07T04:53:44.059Z,100.00
2022-11-07T04:56:13.617Z,100.00
2022-11-07T04:58:41.461Z,100.00
2022-11-07T05:01:09.418Z,100.00
2022-11-07T05:03:41.588Z,100.00
2022-11-07T05:06:13.424Z,100.00
2022-11-07T05:08:41.660Z,100.00
2022-11-07T05:11:09.499Z,100.00
2022-11-07T05:13:39.020Z,100.00
2022-11-07T05:16:34.707Z,100.00
2022-11-07T05:19:02.753Z,100.00
2022-11-07T05:21:30.644Z,100.00
2022-11-07T05:23:58.474Z,100.00
2022-11-07T05:26:26.203Z,100.00
2022-11-07T05:28:55.311Z,100.00
2022-11-07T05:31:23.033Z,100.00
2022-11-07T05:33:50.811Z,100.00
2022-11-07T05:36:22.719Z,100.00
2022-11-07T05:38:52.402Z,100.00
2022-11-07T05:41:21.979Z,100.00
2022-11-07T05:43:50.149Z,100.00
2022-11-07T05:46:19.278Z,100.00
2022-11-07T05:48:47.078Z,100.00
2022-11-07T05:51:14.906Z,100.00
2022-11-07T05:53:42.688Z,100.00
2022-11-07T05:56:10.546Z,100.00
2022-11-07T05:58:38.262Z,100.00
2022-11-07T06:01:07.722Z,100.00
2022-11-07T06:03:36.883Z,100.00
2022-11-07T06:06:05.153Z,100.00
2022-11-07T06:08:32.983Z,100.00
2022-11-07T06:11:05.799Z,100.00
2022-11-07T06:13:33.658Z,100.00
2022-11-07T06:16:01.631Z,100.00
2022-11-07T06:18:29.460Z,100.00
2022-11-07T06:20:58.615Z,100.00
2022-11-07T06:23:26.488Z,100.00
2022-11-07T06:25:54.248Z,100.00
2022-11-07T06:28:22.089Z,100.00
2022-11-07T06:30:49.910Z,100.00
2022-11-07T06:33:19.926Z,100.00
2022-11-07T06:35:48.317Z,100.00
2022-11-07T06:38:17.775Z,100.00
2022-11-07T06:40:45.925Z,100.00
2022-11-07T06:43:16.125Z,100.00
2022-11-07T06:45:44.387Z,100.00
2022-11-07T06:48:13.029Z,100.00
2022-11-07T06:50:40.971Z,100.00
2022-11-07T06:53:11.170Z,100.00
2022-11-07T06:55:40.679Z,100.00
2022-11-07T06:58:08.509Z,100.00
2022-11-07T07:00:37.647Z,100.00
2022-11-07T07:03:06.436Z,100.00
2022-11-07T07:05:34.915Z,100.00
2022-11-07T07:08:03.414Z,100.00
2022-11-07T07:10:31.837Z,100.00
2022-11-07T07:13:02.032Z,100.00
2022-11-07T07:15:38.557Z,100.00
2022-11-07T07:18:18.334Z,100.00
2022-11-07T07:20:46.923Z,100.00
2022-11-07T07:23:14.789Z,100.00
2022-11-07T07:25:42.587Z,100.00
2022-11-07T07:28:11.730Z,100.00
2022-11-07T07:30:39.874Z,100.00
2022-11-07T07:33:07.701Z,100.00
2022-11-07T07:35:35.456Z,100.00
2022-11-07T07:38:03.216Z,100.00
2022-11-07T07:40:30.989Z,100.00
2022-11-07T07:42:58.865Z,100.00
2022-11-07T07:45:28.066Z,100.00
2022-11-07T07:48:01.202Z,100.00
2022-11-07T07:50:29.061Z,100.00
2022-11-07T07:52:57.737Z,100.00
2022-11-07T07:55:25.536Z,100.00
2022-11-07T07:57:53.288Z,100.00
2022-11-07T08:00:21.148Z,100.00
2022-11-07T08:02:50.254Z,100.00
2022-11-07T08:05:18.273Z,100.00
2022-11-07T08:07:47.662Z,100.00
2022-11-07T08:10:40.389Z,99.15
2022-11-07T08:13:03.486Z,98.72
2022-11-07T08:15:31.346Z,99.21
2022-11-07T08:18:03.228Z,98.50
2022-11-07T08:20:31.063Z,97.95
2022-11-07T08:23:02.695Z,98.30
2022-11-07T08:25:30.994Z,98.03
2022-11-07T08:27:58.968Z,97.80
2022-11-07T08:30:28.324Z,96.14
2022-11-07T08:32:56.609Z,96.47
2022-11-07T08:35:25.808Z,94.94
2022-11-07T08:37:54.165Z,94.62
2022-11-07T08:40:22.047Z,93.79
2022-11-07T08:45:39.545Z,93.15
2022-11-07T08:48:07.763Z,93.33
2022-11-07T08:50:35.580Z,93.17
2022-11-07T08:53:03.500Z,92.30
2022-11-07T08:55:31.798Z,91.37
2022-11-07T08:58:00.971Z,92.37
2022-11-07T09:00:29.091Z,93.30
2022-11-07T09:05:50.122Z,91.73
2022-11-07T09:08:18.223Z,91.36
2022-11-07T09:10:46.299Z,90.86
2022-11-07T09:13:15.487Z,90.35
2022-11-07T09:15:49.358Z,90.53
2022-11-07T09:18:20.562Z,90.02
2022-11-07T09:20:48.497Z,90.64
2022-11-07T09:23:16.638Z,90.99
2022-11-07T09:25:44.856Z,91.70
2022-11-07T09:28:12.987Z,90.60
2022-11-07T09:30:41.025Z,90.61
2022-11-07T09:33:08.975Z,89.09
2022-11-07T09:35:40.656Z,88.20
2022-11-07T09:38:08.506Z,87.14
2022-11-07T09:40:44.587Z,86.77
2022-11-07T09:43:29.527Z,87.48
2022-11-07T09:46:05.736Z,87.53
2022-11-07T09:48:40.723Z,87.12
2022-11-07T09:51:16.047Z,86.27
2022-11-07T09:53:48.672Z,85.20
2022-11-07T09:56:17.021Z,83.92
2022-11-07T09:58:47.608Z,83.23
2022-11-07T10:01:17.623Z,83.01
2022-11-07T10:04:10.197Z,84.46
2022-11-07T10:06:40.983Z,84.16
2022-11-07T10:09:16.977Z,82.76
2022-11-07T10:11:52.159Z,81.66
2022-11-07T10:14:29.091Z,81.91
2022-11-07T10:17:18.222Z,81.51
2022-11-07T10:20:00.105Z,81.31
2022-11-07T10:22:42.746Z,79.60
2022-11-07T10:25:27.664Z,79.47
2022-11-07T10:28:10.421Z,77.97
2022-11-07T10:30:38.243Z,78.53
2022-11-07T10:33:13.972Z,78.90
2022-11-07T10:35:46.951Z,78.42
2022-11-07T10:38:23.942Z,78.77
2022-11-07T10:40:52.646Z,79.40
2022-11-07T10:43:29.469Z,79.67
2022-11-07T10:45:58.472Z,79.88
2022-11-07T10:48:29.451Z,79.36
2022-11-07T10:50:58.931Z,79.15
2022-11-07T10:53:28.552Z,77.83
2022-11-07T10:55:57.225Z,77.80
2022-11-07T10:58:27.801Z,77.87
2022-11-07T11:01:00.217Z,79.02
2022-11-07T11:03:43.169Z,78.68
2022-11-07T11:06:21.599Z,79.36
2022-11-07T11:08:52.755Z,79.67
2022-11-07T11:11:29.586Z,79.69
2022-11-07T11:14:12.424Z,78.89
2022-11-07T11:16:42.478Z,78.93
2022-11-07T11:19:21.258Z,79.99
2022-11-07T11:21:51.748Z,78.84
2022-11-07T11:24:27.723Z,78.47
2022-11-07T11:26:59.992Z,78.21
2022-11-07T11:29:39.303Z,76.49
2022-11-07T11:32:15.957Z,78.27
2022-11-07T11:34:52.202Z,77.50
2022-11-07T11:37:22.723Z,77.76
2022-11-07T11:40:05.213Z,79.65
2022-11-07T11:42:42.047Z,81.02
2022-11-07T11:45:18.103Z,83.34
2022-11-07T11:47:54.380Z,85.09
2022-11-07T11:50:28.744Z,84.87
2022-11-07T11:52:56.535Z,84.70
2022-11-07T11:55:31.434Z,83.94
2022-11-07T11:58:08.393Z,84.33
2022-11-07T12:00:42.395Z,84.43
2022-11-07T12:03:36.409Z,84.16
2022-11-07T12:06:15.370Z,85.08
2022-11-07T12:09:08.137Z,83.89
2022-11-07T12:11:47.258Z,83.92
2022-11-07T12:14:35.674Z,83.48
2022-11-07T12:17:11.219Z,84.62
2022-11-07T12:21:28.531Z,84.46
2022-11-07T12:23:52.503Z,84.77
2022-11-07T12:26:27.820Z,85.09
2022-11-07T12:29:06.489Z,85.73
2022-11-07T12:31:49.420Z,86.78
2022-11-07T12:34:29.948Z,86.89
2022-11-07T12:37:05.476Z,88.58
2022-11-07T12:39:52.365Z,90.13
2022-11-07T12:42:32.376Z,91.52
2022-11-07T12:45:16.955Z,92.13
2022-11-07T12:47:59.479Z,93.42
2022-11-07T12:50:39.885Z,91.53
2022-11-07T12:53:18.719Z,91.21
2022-11-07T12:55:51.430Z,92.20
2022-11-07T12:58:23.170Z,91.04
2022-11-07T13:00:53.719Z,89.28
2022-11-07T13:03:30.446Z,88.67
2022-11-07T13:06:08.326Z,90.08
2022-11-07T13:08:40.880Z,88.78
2022-11-07T13:11:18.601Z,89.54
2022-11-07T13:13:56.210Z,89.15
2022-11-07T13:16:28.444Z,89.69
2022-11-07T13:18:57.114Z,90.00
2022-11-07T13:21:25.316Z,89.93
2022-11-07T13:23:53.553Z,89.35
2022-11-07T13:29:27.388Z,90.57
2022-11-07T13:32:09.044Z,90.49
2022-11-07T13:34:48.789Z,91.24
2022-11-07T13:37:23.401Z,90.30
2022-11-07T13:39:56.004Z,90.84
2022-11-07T13:42:27.644Z,89.57
2022-11-07T13:44:58.185Z,89.94
2022-11-07T13:47:32.049Z,90.38
2022-11-07T13:50:08.708Z,91.54
2022-11-07T13:52:42.772Z,90.67
2022-11-07T13:55:18.825Z,90.14
2022-11-07T13:57:51.609Z,89.57
2022-11-07T14:00:21.325Z,89.84
2022-11-07T14:02:56.252Z,89.74
2022-11-07T14:05:26.996Z,90.79
2022-11-07T14:07:59.016Z,90.42
2022-11-07T14:10:30.627Z,90.11
2022-11-07T14:13:07.184Z,90.85
2022-11-07T14:15:36.800Z,89.79
2022-11-07T14:18:07.126Z,89.76
2022-11-07T14:20:34.954Z,89.62
2022-11-07T14:23:02.849Z,88.85
2022-11-07T14:25:32.226Z,88.68
2022-11-07T14:28:01.075Z,89.23
2022-11-07T14:30:31.692Z,89.67
2022-11-07T14:33:01.446Z,90.02
2022-11-07T14:35:33.484Z,90.47
2022-11-07T14:38:10.442Z,90.75
2022-11-07T14:40:39.117Z,92.11
2022-11-07T14:43:07.182Z,92.34
2022-11-07T14:48:27.615Z,91.73
2022-11-07T14:50:57.768Z,92.27
2022-11-07T14:53:29.034Z,92.84
2022-11-07T14:56:02.165Z,94.05
2022-11-07T14:58:31.460Z,94.25
2022-11-07T15:01:15.321Z,93.09
2022-11-07T15:03:55.000Z,93.93
2022-11-07T15:06:29.345Z,94.83
2022-11-07T15:08:59.655Z,94.96
2022-11-07T15:11:32.026Z,94.76
2022-11-07T15:14:01.416Z,95.14
2022-11-07T15:16:34.373Z,94.41
2022-11-07T15:59:58.397Z,100.00
2022-11-07T16:02:26.308Z,100.00
2022-11-07T16:04:54.144Z,100.00
2022-11-07T16:07:22.341Z,100.00
2022-11-07T16:09:50.166Z,100.00
2022-11-07T16:12:19.416Z,100.00
2022-11-07T16:14:47.240Z,100.00
2022-11-07T16:17:17.882Z,100.00
2022-11-07T16:19:45.900Z,99.19
2022-11-07T16:22:17.540Z,98.62
2022-11-07T16:24:45.392Z,97.77
2022-11-07T16:27:16.824Z,97.58
2022-11-07T16:29:45.333Z,97.95
2022-11-07T16:32:17.858Z,97.59
2022-11-07T16:34:48.245Z,97.54
2022-11-07T16:37:16.137Z,97.56
2022-11-07T16:39:44.436Z,97.43
2022-11-07T16:42:16.070Z,97.95
2022-11-07T16:44:43.990Z,98.52
2022-11-07T16:47:14.851Z,98.70
2022-11-07T16:49:42.836Z,98.43
2022-11-07T16:52:14.451Z,98.76
2022-11-07T16:54:42.286Z,98.62
2022-11-07T16:57:13.501Z,98.79
2022-11-07T16:59:41.737Z,99.55
2022-11-07T17:02:20.655Z,100.00
2022-11-07T17:04:49.618Z,100.00
2022-11-07T17:07:20.580Z,100.00
2022-11-07T17:09:54.350Z,100.00
2022-11-07T17:12:24.069Z,100.00
2022-11-07T17:14:52.603Z,100.00
2022-11-07T17:17:20.919Z,100.00
2022-11-07T17:19:48.699Z,100.00
2022-11-07T17:22:18.687Z,99.95
2022-11-07T17:24:46.489Z,100.00
2022-11-07T17:27:21.801Z,100.00
2022-11-07T17:29:50.204Z,99.35
2022-11-07T17:32:18.183Z,98.63
2022-11-07T17:34:46.764Z,98.06
2022-11-07T17:37:20.887Z,97.79
2022-11-07T17:39:49.137Z,99.08
2022-11-07T17:42:16.963Z,98.15
2022-11-07T17:44:44.751Z,97.87
2022-11-07T17:47:29.316Z,98.32
2022-11-07T17:49:57.314Z,100.00
2022-11-07T17:52:26.704Z,100.00
2022-11-07T17:54:54.903Z,100.00
2022-11-07T17:57:22.905Z,100.00
2022-11-07T17:59:51.658Z,100.00
2022-11-07T18:02:21.000Z,100.00
2022-11-07T18:04:49.004Z,100.00
2022-11-07T18:07:17.046Z,100.00
2022-11-07T18:09:46.289Z,100.00
2022-11-07T18:12:14.122Z,100.00
2022-11-07T18:14:41.980Z,99.93
2022-11-07T18:17:09.878Z,100.00
2022-11-07T18:19:37.645Z,100.00
2022-11-07T18:22:05.412Z,100.00
2022-11-07T18:24:33.277Z,100.00
2022-11-07T18:27:06.645Z,100.00
2022-11-07T18:29:37.115Z,100.00
2022-11-07T18:32:05.239Z,100.00
2022-11-07T18:34:33.099Z,100.00
2022-11-07T18:37:00.922Z,100.00
2022-11-07T18:39:28.761Z,100.00
2022-11-07T18:41:56.496Z,100.00
2022-11-07T18:44:25.738Z,100.00
2022-11-07T18:46:53.566Z,100.00
2022-11-07T18:49:21.385Z,100.00
2022-11-07T18:51:49.205Z,100.00
2022-11-07T18:54:17.004Z,100.00
2022-11-07T18:56:44.986Z,100.00
2022-11-07T18:59:12.945Z,100.00
2022-11-07T19:01:42.328Z,100.00
2022-11-07T19:04:11.945Z,100.00
2022-11-07T19:06:56.754Z,100.00
2022-11-07T19:09:30.498Z,100.00
2022-11-07T19:11:59.514Z,100.00
2022-11-07T19:14:28.162Z,100.00
2022-11-07T19:16:57.693Z,100.00
2022-11-07T19:19:25.610Z,100.00
2022-11-07T19:21:53.481Z,100.00
2022-11-07T19:24:21.259Z,100.00
2022-11-07T19:26:49.067Z,100.00
2022-11-07T19:29:17.316Z,100.00
2022-11-07T19:31:45.143Z,100.00
2022-11-07T19:34:16.834Z,100.00
2022-11-07T19:36:44.743Z,100.00
2022-11-07T19:39:12.932Z,100.00
2022-11-07T19:41:40.859Z,100.00
2022-11-07T19:44:09.007Z,100.00
2022-11-07T19:46:37.060Z,100.00
2022-11-07T19:49:04.929Z,100.00
2022-11-07T19:51:34.128Z,100.00
2022-11-07T19:54:01.901Z,100.00
2022-11-07T19:56:31.834Z,100.00
2022-11-07T19:59:00.192Z,100.00
2022-11-07T20:01:29.915Z,100.00
2022-11-07T20:03:58.390Z,100.00
2022-11-07T20:06:30.359Z,100.00
2022-11-07T20:09:00.559Z,100.00
2022-11-07T20:11:28.506Z,100.00
2022-11-07T20:14:02.785Z,100.00
2022-11-07T20:16:31.434Z,100.00
2022-11-07T20:18:59.548Z,100.00
2022-11-07T20:21:28.947Z,100.00
2022-11-07T20:23:59.395Z,100.00
2022-11-07T20:26:29.702Z,100.00
2022-11-07T20:28:57.513Z,100.00
2022-11-07T20:31:27.650Z,100.00
2022-11-07T20:33:57.825Z,100.00
2022-11-07T20:36:26.182Z,100.00
2022-11-07T20:38:55.563Z,100.00
2022-11-07T20:41:24.114Z,100.00
2022-11-07T20:43:55.565Z,100.00
2022-11-07T20:46:23.539Z,100.00
2022-11-07T20:48:51.430Z,100.00
2022-11-07T20:51:25.432Z,100.00
2022-11-07T20:53:55.012Z,100.00
2022-11-07T20:56:28.534Z,100.00
2022-11-07T20:59:14.749Z,100.00
2022-11-07T21:01:44.071Z,100.00
2022-11-07T21:04:18.812Z,100.00
2022-11-07T21:07:09.083Z,100.00
2022-11-07T21:09:43.839Z,100.00
2022-11-07T21:12:15.089Z,100.00
2022-11-07T21:14:45.171Z,100.00
2022-11-07T21:17:16.132Z,100.00
2022-11-07T21:19:43.988Z,100.00
2022-11-07T21:22:11.773Z,100.00
2022-11-07T21:24:39.559Z,100.00
2022-11-07T21:27:07.329Z,100.00
2022-11-07T21:29:35.132Z,100.00
2022-11-07T21:32:06.723Z,100.00
2022-11-07T21:34:37.125Z,100.00
2022-11-07T21:37:05.012Z,100.00
2022-11-07T21:39:32.935Z,100.00
2022-11-07T21:42:00.779Z,100.00
2022-11-07T21:44:28.604Z,100.00
2022-11-07T21:46:56.486Z,100.00
2022-11-07T21:49:25.652Z,100.00
2022-11-07T21:51:53.952Z,100.00
2022-11-07T21:54:21.701Z,100.00
2022-11-07T21:56:49.484Z,100.00
2022-11-07T21:59:17.828Z,100.00
2022-11-07T22:01:48.591Z,100.00
2022-11-07T22:04:16.773Z,100.00
2022-11-07T22:06:47.194Z,100.00
2022-11-07T22:09:17.347Z,100.00
2022-11-07T22:11:45.425Z,100.00
2022-11-07T22:14:15.376Z,100.00
2022-11-07T22:16:43.230Z,100.00
2022-11-07T22:19:12.990Z,100.00
2022-11-07T22:21:41.279Z,100.00
2022-11-07T22:24:11.175Z,100.00
2022-11-07T22:26:39.347Z,100.00
2022-11-07T22:29:07.138Z,100.00
2022-11-07T22:31:35.089Z,100.00
2022-11-07T22:34:03.323Z,100.00
2022-11-07T22:36:31.258Z,100.00
2022-11-07T22:38:59.636Z,100.00
2022-11-07T22:41:30.151Z,100.00
2022-11-07T22:43:58.663Z,100.00
2022-11-07T22:46:28.563Z,100.00
2022-11-07T22:48:57.574Z,100.00
2022-11-07T22:51:27.574Z,100.00
2022-11-07T22:53:59.269Z,100.00
2022-11-07T22:56:28.911Z,100.00
2022-11-07T22:58:57.340Z,100.00
2022-11-07T23:01:27.676Z,100.00
2022-11-07T23:03:55.694Z,100.00
2022-11-07T23:06:24.994Z,100.00
2022-11-07T23:08:53.338Z,100.00
2022-11-07T23:11:45.286Z,100.00
2022-11-07T23:14:14.615Z,100.00
2022-11-07T23:16:45.196Z,100.00
2022-11-07T23:19:14.264Z,100.00
2022-11-07T23:21:42.100Z,100.00
2022-11-07T23:24:10.659Z,100.00
2022-11-07T23:26:39.157Z,100.00
2022-11-07T23:29:11.106Z,100.00
2022-11-07T23:31:41.705Z,100.00
2022-11-07T23:34:10.161Z,100.00
2022-11-07T23:36:40.798Z,100.00
2022-11-07T23:39:11.729Z,100.00
2022-11-07T23:41:39.559Z,100.00
2022-11-07T23:44:07.358Z,100.00
2022-11-07T23:46:52.909Z,100.00
2022-11-07T23:49:40.034Z,100.00
2022-11-07T23:52:08.020Z,100.00
2022-11-07T23:54:53.482Z,100.00
2022-11-07T23:57:21.347Z,100.00
